sensor_id;sensor_type;location;lat;lon;timestamp;pressure;altitude;pressure_sealevel;temperature;humidity
13033;BME280;6583;42.632;23.298;2022-10-16T00:01:49;93078.41;;;10.40;89.92
13033;BME280;6583;42.632;23.298;2022-10-16T00:04:16;93089.22;;;10.48;89.63
13033;BME280;6583;42.632;23.298;2022-10-16T00:06:43;93086.78;;;10.57;88.64
13033;BME280;6583;42.632;23.298;2022-10-16T00:09:09;93083.84;;;10.59;87.79
13033;BME280;6583;42.632;23.298;2022-10-16T00:11:38;93086.47;;;10.64;86.68
13033;BME280;6583;42.632;23.298;2022-10-16T00:14:07;93098.44;;;10.66;85.35
13033;BME280;6583;42.632;23.298;2022-10-16T00:16:35;93095.28;;;10.59;85.36
13033;BME280;6583;42.632;23.298;2022-10-16T00:19:02;93104.91;;;10.45;85.54
13033;BME280;6583;42.632;23.298;2022-10-16T00:21:30;93095.97;;;10.25;85.91
13033;BME280;6583;42.632;23.298;2022-10-16T00:23:59;93089.41;;;10.07;87.49
13033;BME280;6583;42.632;23.298;2022-10-16T00:26:27;93102.47;;;9.93;89.36
13033;BME280;6583;42.632;23.298;2022-10-16T00:28:54;93099.25;;;9.91;89.33
13033;BME280;6583;42.632;23.298;2022-10-16T00:31:22;93103.53;;;9.82;89.20
13033;BME280;6583;42.632;23.298;2022-10-16T00:33:50;93105.94;;;9.78;91.30
13033;BME280;6583;42.632;23.298;2022-10-16T00:36:19;93101.97;;;9.81;92.33
13033;BME280;6583;42.632;23.298;2022-10-16T00:38:47;93095.84;;;9.86;92.62
13033;BME280;6583;42.632;23.298;2022-10-16T00:41:18;93106.91;;;10.03;91.94
13033;BME280;6583;42.632;23.298;2022-10-16T00:43:46;93110.06;;;10.10;90.96
13033;BME280;6583;42.632;23.298;2022-10-16T00:46:16;93105.53;;;10.21;90.59
13033;BME280;6583;42.632;23.298;2022-10-16T00:48:49;93102.28;;;10.29;89.86
13033;BME280;6583;42.632;23.298;2022-10-16T00:51:19;93095.94;;;10.35;88.91
13033;BME280;6583;42.632;23.298;2022-10-16T00:53:48;93095.91;;;10.41;88.35
13033;BME280;6583;42.632;23.298;2022-10-16T00:56:16;93092.72;;;10.44;87.84
13033;BME280;6583;42.632;23.298;2022-10-16T00:58:43;93090.03;;;10.49;87.72
13033;BME280;6583;42.632;23.298;2022-10-16T01:01:09;93099.56;;;10.50;87.37
13033;BME280;6583;42.632;23.298;2022-10-16T01:03:36;93111.00;;;10.50;85.52
13033;BME280;6583;42.632;23.298;2022-10-16T01:06:23;93114.72;;;10.49;86.24
13033;BME280;6583;42.632;23.298;2022-10-16T01:09:11;93112.59;;;10.46;85.98
13033;BME280;6583;42.632;23.298;2022-10-16T01:11:45;93109.66;;;10.48;85.42
13033;BME280;6583;42.632;23.298;2022-10-16T01:14:20;93110.19;;;10.50;85.28
13033;BME280;6583;42.632;23.298;2022-10-16T01:16:53;93107.56;;;10.45;86.47
13033;BME280;6583;42.632;23.298;2022-10-16T01:19:36;93100.91;;;10.47;87.61
13033;BME280;6583;42.632;23.298;2022-10-16T01:22:09;93100.66;;;10.49;87.13
13033;BME280;6583;42.632;23.298;2022-10-16T01:24:39;93099.06;;;10.48;86.77
13033;BME280;6583;42.632;23.298;2022-10-16T01:27:10;93100.66;;;10.49;86.47
13033;BME280;6583;42.632;23.298;2022-10-16T01:29:42;93096.66;;;10.51;85.94
13033;BME280;6583;42.632;23.298;2022-10-16T01:32:16;93081.25;;;10.48;86.21
13033;BME280;6583;42.632;23.298;2022-10-16T01:34:48;93091.06;;;10.53;86.13
13033;BME280;6583;42.632;23.298;2022-10-16T01:37:22;93081.78;;;10.56;85.48
13033;BME280;6583;42.632;23.298;2022-10-16T01:39:55;93089.50;;;10.52;85.15
13033;BME280;6583;42.632;23.298;2022-10-16T01:42:29;93091.59;;;10.50;85.70
13033;BME280;6583;42.632;23.298;2022-10-16T01:44:59;93095.06;;;10.50;85.23
13033;BME280;6583;42.632;23.298;2022-10-16T01:47:27;93090.88;;;10.39;84.66
13033;BME280;6583;42.632;23.298;2022-10-16T01:49:55;93090.66;;;10.25;85.16
13033;BME280;6583;42.632;23.298;2022-10-16T01:52:25;93098.66;;;10.10;87.58
13033;BME280;6583;42.632;23.298;2022-10-16T01:54:54;93106.66;;;10.05;87.63
13033;BME280;6583;42.632;23.298;2022-10-16T01:57:25;93096.88;;;10.00;88.07
13033;BME280;6583;42.632;23.298;2022-10-16T01:59:56;93102.47;;;9.88;88.92
13033;BME280;6583;42.632;23.298;2022-10-16T02:02:26;93105.94;;;9.84;89.42
13033;BME280;6583;42.632;23.298;2022-10-16T02:04:58;93104.88;;;9.79;89.57
13033;BME280;6583;42.632;23.298;2022-10-16T02:07:29;93103.81;;;9.75;90.76
13033;BME280;6583;42.632;23.298;2022-10-16T02:09:56;93108.84;;;9.77;91.53
13033;BME280;6583;42.632;23.298;2022-10-16T02:12:27;93110.97;;;9.80;91.69
13033;BME280;6583;42.632;23.298;2022-10-16T02:14:55;93114.66;;;9.84;91.40
13033;BME280;6583;42.632;23.298;2022-10-16T02:17:22;93120.50;;;9.86;90.20
13033;BME280;6583;42.632;23.298;2022-10-16T02:19:51;93116.81;;;9.77;90.81
13033;BME280;6583;42.632;23.298;2022-10-16T02:22:22;93123.72;;;9.73;91.17
13033;BME280;6583;42.632;23.298;2022-10-16T02:24:56;93127.41;;;9.77;90.94
13033;BME280;6583;42.632;23.298;2022-10-16T02:27:29;93129.78;;;9.78;92.15
13033;BME280;6583;42.632;23.298;2022-10-16T02:30:03;93139.09;;;9.76;90.77
13033;BME280;6583;42.632;23.298;2022-10-16T02:32:35;93123.47;;;9.74;92.04
13033;BME280;6583;42.632;23.298;2022-10-16T02:35:04;93126.88;;;9.80;91.81
13033;BME280;6583;42.632;23.298;2022-10-16T02:37:32;93122.63;;;9.84;89.49
13033;BME280;6583;42.632;23.298;2022-10-16T02:39:59;93125.53;;;9.83;90.56
13033;BME280;6583;42.632;23.298;2022-10-16T02:42:33;93125.81;;;9.86;90.79
13033;BME280;6583;42.632;23.298;2022-10-16T02:45:00;93134.28;;;9.88;88.72
13033;BME280;6583;42.632;23.298;2022-10-16T02:47:27;93130.31;;;9.86;89.29
13033;BME280;6583;42.632;23.298;2022-10-16T02:49:53;93134.56;;;9.82;88.82
13033;BME280;6583;42.632;23.298;2022-10-16T02:52:20;93134.84;;;9.75;89.33
13033;BME280;6583;42.632;23.298;2022-10-16T02:54:47;93138.03;;;9.67;89.43
13033;BME280;6583;42.632;23.298;2022-10-16T02:57:14;93129.03;;;9.57;90.51
13033;BME280;6583;42.632;23.298;2022-10-16T02:59:42;93138.03;;;9.56;90.79
13033;BME280;6583;42.632;23.298;2022-10-16T03:02:08;93137.53;;;9.49;91.10
13033;BME280;6583;42.632;23.298;2022-10-16T03:04:35;93142.31;;;9.52;92.01
13033;BME280;6583;42.632;23.298;2022-10-16T03:07:02;93141.25;;;9.53;90.38
13033;BME280;6583;42.632;23.298;2022-10-16T03:09:29;93131.19;;;9.45;90.58
13033;BME280;6583;42.632;23.298;2022-10-16T03:11:56;93134.34;;;9.47;90.60
13033;BME280;6583;42.632;23.298;2022-10-16T03:14:23;93143.34;;;9.36;90.11
13033;BME280;6583;42.632;23.298;2022-10-16T03:16:51;93145.75;;;9.37;91.37
13033;BME280;6583;42.632;23.298;2022-10-16T03:19:18;93139.91;;;9.40;92.35
13033;BME280;6583;42.632;23.298;2022-10-16T03:21:45;93150.50;;;9.46;92.26
13033;BME280;6583;42.632;23.298;2022-10-16T03:24:11;93147.06;;;9.50;91.31
13033;BME280;6583;42.632;23.298;2022-10-16T03:26:38;93148.13;;;9.49;90.31
13033;BME280;6583;42.632;23.298;2022-10-16T03:29:05;93150.78;;;9.54;90.87
13033;BME280;6583;42.632;23.298;2022-10-16T03:31:32;93151.84;;;9.53;89.85
13033;BME280;6583;42.632;23.298;2022-10-16T03:34:00;93148.13;;;9.54;88.33
13033;BME280;6583;42.632;23.298;2022-10-16T03:36:27;93148.13;;;9.49;88.75
13033;BME280;6583;42.632;23.298;2022-10-16T03:38:53;93156.84;;;9.55;89.23
13033;BME280;6583;42.632;23.298;2022-10-16T03:41:20;93165.88;;;9.54;88.01
13033;BME280;6583;42.632;23.298;2022-10-16T03:43:47;93158.19;;;9.52;88.66
13033;BME280;6583;42.632;23.298;2022-10-16T03:46:13;93160.06;;;9.57;89.36
13033;BME280;6583;42.632;23.298;2022-10-16T03:48:40;93151.03;;;9.63;89.06
13033;BME280;6583;42.632;23.298;2022-10-16T03:51:08;93147.59;;;9.68;89.56
13033;BME280;6583;42.632;23.298;2022-10-16T03:53:35;93147.84;;;9.71;88.80
13033;BME280;6583;42.632;23.298;2022-10-16T03:56:01;93145.72;;;9.73;87.76
13033;BME280;6583;42.632;23.298;2022-10-16T03:58:28;93142.53;;;9.76;88.12
13033;BME280;6583;42.632;23.298;2022-10-16T04:00:55;93142.53;;;9.82;87.43
13033;BME280;6583;42.632;23.298;2022-10-16T04:03:22;93146.22;;;9.86;87.08
13033;BME280;6583;42.632;23.298;2022-10-16T04:05:48;93140.38;;;9.84;86.49
13033;BME280;6583;42.632;23.298;2022-10-16T04:08:17;93143.28;;;9.87;86.23
13033;BME280;6583;42.632;23.298;2022-10-16T04:10:43;93141.16;;;9.89;85.76
13033;BME280;6583;42.632;23.298;2022-10-16T04:13:10;93148.06;;;9.85;85.88
13033;BME280;6583;42.632;23.298;2022-10-16T04:15:37;93141.97;;;9.90;85.64
13033;BME280;6583;42.632;23.298;2022-10-16T04:18:04;93145.94;;;9.87;85.00
13033;BME280;6583;42.632;23.298;2022-10-16T04:20:32;93148.34;;;9.84;84.94
13033;BME280;6583;42.632;23.298;2022-10-16T04:22:59;93153.13;;;9.76;85.06
13033;BME280;6583;42.632;23.298;2022-10-16T04:25:27;93148.63;;;9.67;85.65
13033;BME280;6583;42.632;23.298;2022-10-16T04:27:54;93153.41;;;9.59;86.32
13033;BME280;6583;42.632;23.298;2022-10-16T04:30:22;93159.78;;;9.53;87.13
13033;BME280;6583;42.632;23.298;2022-10-16T04:32:49;93158.72;;;9.49;87.97
13033;BME280;6583;42.632;23.298;2022-10-16T04:35:16;93157.69;;;9.50;89.00
13033;BME280;6583;42.632;23.298;2022-10-16T04:37:43;93157.66;;;9.55;88.44
13033;BME280;6583;42.632;23.298;2022-10-16T04:40:10;93160.31;;;9.60;88.90
13033;BME280;6583;42.632;23.298;2022-10-16T04:42:38;93160.56;;;9.64;88.20
13033;BME280;6583;42.632;23.298;2022-10-16T04:45:05;93162.97;;;9.66;87.27
13033;BME280;6583;42.632;23.298;2022-10-16T04:47:32;93167.44;;;9.65;86.68
13033;BME280;6583;42.632;23.298;2022-10-16T04:49:59;93168.78;;;9.73;86.48
13033;BME280;6583;42.632;23.298;2022-10-16T04:52:26;93166.38;;;9.76;86.95
13033;BME280;6583;42.632;23.298;2022-10-16T04:54:53;93170.06;;;9.81;86.95
13033;BME280;6583;42.632;23.298;2022-10-16T04:57:20;93176.19;;;9.81;85.95
13033;BME280;6583;42.632;23.298;2022-10-16T04:59:48;93185.19;;;9.80;85.66
13033;BME280;6583;42.632;23.298;2022-10-16T05:02:16;93188.63;;;9.75;86.57
13033;BME280;6583;42.632;23.298;2022-10-16T05:04:42;93191.03;;;9.72;87.36
13033;BME280;6583;42.632;23.298;2022-10-16T05:07:09;93188.38;;;9.72;87.38
13033;BME280;6583;42.632;23.298;2022-10-16T05:09:36;93191.53;;;9.74;87.28
13033;BME280;6583;42.632;23.298;2022-10-16T05:12:02;93194.19;;;9.69;87.94
13033;BME280;6583;42.632;23.298;2022-10-16T05:14:29;93193.41;;;9.68;88.14
13033;BME280;6583;42.632;23.298;2022-10-16T05:16:59;93198.47;;;9.70;87.85
13033;BME280;6583;42.632;23.298;2022-10-16T05:19:26;93199.25;;;9.70;89.04
13033;BME280;6583;42.632;23.298;2022-10-16T05:21:52;93194.22;;;9.64;89.63
13033;BME280;6583;42.632;23.298;2022-10-16T05:24:19;93198.97;;;9.62;89.61
13033;BME280;6583;42.632;23.298;2022-10-16T05:26:45;93205.34;;;9.66;89.35
13033;BME280;6583;42.632;23.298;2022-10-16T05:29:12;93198.72;;;9.63;89.13
13033;BME280;6583;42.632;23.298;2022-10-16T05:31:39;93202.16;;;9.64;89.56
13033;BME280;6583;42.632;23.298;2022-10-16T05:34:07;93198.19;;;9.66;90.33
13033;BME280;6583;42.632;23.298;2022-10-16T05:36:34;93200.06;;;9.66;90.70
13033;BME280;6583;42.632;23.298;2022-10-16T05:39:00;93200.06;;;9.66;91.34
13033;BME280;6583;42.632;23.298;2022-10-16T05:41:27;93197.41;;;9.66;91.24
13033;BME280;6583;42.632;23.298;2022-10-16T05:43:54;93205.63;;;9.69;91.09
13033;BME280;6583;42.632;23.298;2022-10-16T05:46:21;93206.66;;;9.73;90.04
13033;BME280;6583;42.632;23.298;2022-10-16T05:48:47;93215.13;;;9.75;90.07
13033;BME280;6583;42.632;23.298;2022-10-16T05:51:15;93215.97;;;9.76;91.18
13033;BME280;6583;42.632;23.298;2022-10-16T05:53:42;93221.78;;;9.78;91.60
13033;BME280;6583;42.632;23.298;2022-10-16T05:56:10;93218.03;;;9.79;91.83
13033;BME280;6583;42.632;23.298;2022-10-16T05:58:38;93216.47;;;9.83;90.67
13033;BME280;6583;42.632;23.298;2022-10-16T06:01:07;93223.34;;;9.89;90.40
13033;BME280;6583;42.632;23.298;2022-10-16T06:03:34;93222.28;;;9.90;91.13
13033;BME280;6583;42.632;23.298;2022-10-16T06:06:07;93230.78;;;9.92;91.29
13033;BME280;6583;42.632;23.298;2022-10-16T06:08:35;93235.53;;;9.95;91.19
13033;BME280;6583;42.632;23.298;2022-10-16T06:11:03;93240.31;;;9.98;91.78
13033;BME280;6583;42.632;23.298;2022-10-16T06:13:29;93244.03;;;9.97;91.71
13033;BME280;6583;42.632;23.298;2022-10-16T06:15:57;93252.50;;;10.00;91.71
13033;BME280;6583;42.632;23.298;2022-10-16T06:18:24;93250.91;;;9.98;91.91
13033;BME280;6583;42.632;23.298;2022-10-16T06:20:51;93259.41;;;10.01;92.16
13033;BME280;6583;42.632;23.298;2022-10-16T06:23:18;93259.41;;;10.06;92.13
13033;BME280;6583;42.632;23.298;2022-10-16T06:25:46;93258.31;;;10.07;92.93
13033;BME280;6583;42.632;23.298;2022-10-16T06:28:13;93255.66;;;10.12;92.67
13033;BME280;6583;42.632;23.298;2022-10-16T06:30:40;93259.38;;;10.11;92.57
13033;BME280;6583;42.632;23.298;2022-10-16T06:33:09;93259.41;;;10.06;93.77
13033;BME280;6583;42.632;23.298;2022-10-16T06:35:35;93260.19;;;10.11;93.36
13033;BME280;6583;42.632;23.298;2022-10-16T06:38:02;93262.81;;;10.11;93.28
13033;BME280;6583;42.632;23.298;2022-10-16T06:40:29;93269.47;;;10.04;94.17
13033;BME280;6583;42.632;23.298;2022-10-16T06:42:57;93271.84;;;10.05;93.68
13033;BME280;6583;42.632;23.298;2022-10-16T06:45:23;93263.63;;;10.07;95.16
13033;BME280;6583;42.632;23.298;2022-10-16T06:47:50;93276.63;;;10.08;93.90
13033;BME280;6583;42.632;23.298;2022-10-16T06:50:17;93279.53;;;10.07;94.30
13033;BME280;6583;42.632;23.298;2022-10-16T06:52:43;93277.94;;;10.11;95.27
13033;BME280;6583;42.632;23.298;2022-10-16T06:55:10;93281.38;;;10.11;95.87
13033;BME280;6583;42.632;23.298;2022-10-16T06:57:37;93293.34;;;10.09;95.56
13033;BME280;6583;42.632;23.298;2022-10-16T07:00:06;93291.22;;;10.11;95.33
13033;BME280;6583;42.632;23.298;2022-10-16T07:02:33;93299.69;;;10.18;95.70
13033;BME280;6583;42.632;23.298;2022-10-16T07:04:59;93301.56;;;10.07;96.11
13033;BME280;6583;42.632;23.298;2022-10-16T07:07:26;93294.91;;;10.10;96.01
13033;BME280;6583;42.632;23.298;2022-10-16T07:09:53;93300.47;;;10.19;96.05
13033;BME280;6583;42.632;23.298;2022-10-16T07:12:19;93302.34;;;10.23;94.93
13033;BME280;6583;42.632;23.298;2022-10-16T07:14:46;93303.38;;;10.27;94.93
13033;BME280;6583;42.632;23.298;2022-10-16T07:17:14;93300.97;;;10.31;94.34
13033;BME280;6583;42.632;23.298;2022-10-16T07:19:41;93306.56;;;10.34;94.32
13033;BME280;6583;42.632;23.298;2022-10-16T07:22:07;93313.50;;;10.35;92.30
13033;BME280;6583;42.632;23.298;2022-10-16T07:24:34;93314.25;;;10.41;92.06
13033;BME280;6583;42.632;23.298;2022-10-16T07:27:01;93308.94;;;10.31;91.05
13033;BME280;6583;42.632;23.298;2022-10-16T07:29:28;93321.44;;;10.35;93.02
13033;BME280;6583;42.632;23.298;2022-10-16T07:31:54;93314.53;;;10.34;91.82
13033;BME280;6583;42.632;23.298;2022-10-16T07:34:22;93315.34;;;10.40;92.14
13033;BME280;6583;42.632;23.298;2022-10-16T07:36:50;93316.13;;;10.51;91.98
13033;BME280;6583;42.632;23.298;2022-10-16T07:39:16;93314.25;;;10.57;91.14
13033;BME280;6583;42.632;23.298;2022-10-16T07:41:43;93317.66;;;10.62;92.09
13033;BME280;6583;42.632;23.298;2022-10-16T07:44:10;93315.00;;;10.67;91.31
13033;BME280;6583;42.632;23.298;2022-10-16T07:46:37;93314.19;;;10.72;89.69
13033;BME280;6583;42.632;23.298;2022-10-16T07:49:03;93320.81;;;10.80;90.69
13033;BME280;6583;42.632;23.298;2022-10-16T07:51:32;93316.56;;;10.79;89.29
13033;BME280;6583;42.632;23.298;2022-10-16T07:53:58;93320.84;;;10.75;90.46
13033;BME280;6583;42.632;23.298;2022-10-16T07:56:25;93322.94;;;10.78;90.08
13033;BME280;6583;42.632;23.298;2022-10-16T07:58:52;93322.91;;;10.83;89.28
13033;BME280;6583;42.632;23.298;2022-10-16T08:01:19;93323.72;;;10.83;88.02
13033;BME280;6583;42.632;23.298;2022-10-16T08:03:47;93322.88;;;10.93;87.63
13033;BME280;6583;42.632;23.298;2022-10-16T08:06:14;93334.53;;;11.07;88.17
13033;BME280;6583;42.632;23.298;2022-10-16T08:08:42;93333.44;;;11.14;87.91
13033;BME280;6583;42.632;23.298;2022-10-16T08:11:09;93330.72;;;11.24;89.06
13033;BME280;6583;42.632;23.298;2022-10-16T08:13:36;93327.50;;;11.37;89.24
13033;BME280;6583;42.632;23.298;2022-10-16T08:16:03;93325.06;;;11.46;87.65
13033;BME280;6583;42.632;23.298;2022-10-16T08:18:33;93324.75;;;11.53;87.35
13033;BME280;6583;42.632;23.298;2022-10-16T08:21:00;93325.75;;;11.62;86.13
13033;BME280;6583;42.632;23.298;2022-10-16T08:23:27;93330.72;;;11.74;84.60
13033;BME280;6583;42.632;23.298;2022-10-16T08:26:01;93341.06;;;11.80;83.33
13033;BME280;6583;42.632;23.298;2022-10-16T08:28:28;93336.22;;;11.88;82.11
13033;BME280;6583;42.632;23.298;2022-10-16T08:30:55;93330.09;;;11.92;82.60
13033;BME280;6583;42.632;23.298;2022-10-16T08:33:22;93331.66;;;11.98;82.07
13033;BME280;6583;42.632;23.298;2022-10-16T08:35:52;93329.50;;;12.00;83.27
13033;BME280;6583;42.632;23.298;2022-10-16T08:38:20;93330.47;;;12.15;82.33
13033;BME280;6583;42.632;23.298;2022-10-16T08:40:47;93336.50;;;12.26;82.31
13033;BME280;6583;42.632;23.298;2022-10-16T08:43:35;93339.06;;;12.36;81.41
13033;BME280;6583;42.632;23.298;2022-10-16T08:46:22;93337.56;;;12.54;78.24
13033;BME280;6583;42.632;23.298;2022-10-16T08:48:53;93343.56;;;12.65;78.78
13033;BME280;6583;42.632;23.298;2022-10-16T08:51:23;93334.47;;;12.71;75.30
13033;BME280;6583;42.632;23.298;2022-10-16T08:53:53;93346.91;;;12.81;76.75
13033;BME280;6583;42.632;23.298;2022-10-16T08:56:21;93348.69;;;12.85;70.06
13033;BME280;6583;42.632;23.298;2022-10-16T08:58:50;93351.81;;;12.92;68.40
13033;BME280;6583;42.632;23.298;2022-10-16T09:01:19;93353.59;;;13.02;70.16
13033;BME280;6583;42.632;23.298;2022-10-16T09:04:07;93351.44;;;13.04;62.35
13033;BME280;6583;42.632;23.298;2022-10-16T09:06:46;93352.75;;;13.07;64.62
13033;BME280;6583;42.632;23.298;2022-10-16T09:09:31;93351.53;;;13.18;66.47
13033;BME280;6583;42.632;23.298;2022-10-16T09:12:11;93355.19;;;13.27;66.43
13033;BME280;6583;42.632;23.298;2022-10-16T09:14:58;93352.22;;;13.29;66.70
13033;BME280;6583;42.632;23.298;2022-10-16T09:17:36;93354.06;;;13.33;66.89
13033;BME280;6583;42.632;23.298;2022-10-16T09:20:18;93353.13;;;13.43;67.77
13033;BME280;6583;42.632;23.298;2022-10-16T09:22:46;93350.13;;;13.50;65.56
13033;BME280;6583;42.632;23.298;2022-10-16T09:25:14;93359.13;;;13.54;61.20
13033;BME280;6583;42.632;23.298;2022-10-16T09:27:42;93349.91;;;13.46;60.76
13033;BME280;6583;42.632;23.298;2022-10-16T09:30:14;93360.94;;;13.59;60.78
13033;BME280;6583;42.632;23.298;2022-10-16T09:32:43;93356.25;;;13.69;60.78
13033;BME280;6583;42.632;23.298;2022-10-16T09:35:16;93350.72;;;13.66;61.30
13033;BME280;6583;42.632;23.298;2022-10-16T09:37:45;93357.03;;;13.70;61.66
13033;BME280;6583;42.632;23.298;2022-10-16T09:40:24;93362.25;;;13.80;58.35
13033;BME280;6583;42.632;23.298;2022-10-16T09:42:56;93346.72;;;13.82;60.65
13033;BME280;6583;42.632;23.298;2022-10-16T09:45:25;93348.47;;;13.92;60.35
13033;BME280;6583;42.632;23.298;2022-10-16T09:47:51;93347.34;;;13.98;61.05
13033;BME280;6583;42.632;23.298;2022-10-16T09:50:24;93336.72;;;13.93;59.82
13033;BME280;6583;42.632;23.298;2022-10-16T09:53:03;93336.94;;;13.97;59.86
13033;BME280;6583;42.632;23.298;2022-10-16T09:55:29;93343.28;;;14.01;60.54
13033;BME280;6583;42.632;23.298;2022-10-16T09:57:56;93339.66;;;14.10;60.95
13033;BME280;6583;42.632;23.298;2022-10-16T10:00:25;93335.31;;;14.15;60.91
13033;BME280;6583;42.632;23.298;2022-10-16T10:02:53;93333.53;;;14.10;58.38
13033;BME280;6583;42.632;23.298;2022-10-16T10:05:22;93338.06;;;14.09;57.78
13033;BME280;6583;42.632;23.298;2022-10-16T10:07:55;93334.91;;;14.07;57.15
13033;BME280;6583;42.632;23.298;2022-10-16T10:10:25;93342.34;;;14.10;56.40
13033;BME280;6583;42.632;23.298;2022-10-16T10:12:52;93332.16;;;14.13;59.95
13033;BME280;6583;42.632;23.298;2022-10-16T10:15:19;93333.22;;;14.11;60.16
13033;BME280;6583;42.632;23.298;2022-10-16T10:17:50;93337.69;;;14.16;58.08
13033;BME280;6583;42.632;23.298;2022-10-16T10:20:26;93327.81;;;14.17;58.73
13033;BME280;6583;42.632;23.298;2022-10-16T10:22:54;93327.16;;;14.25;62.81
13033;BME280;6583;42.632;23.298;2022-10-16T10:25:42;93327.84;;;14.30;59.04
13033;BME280;6583;42.632;23.298;2022-10-16T10:28:29;93330.53;;;14.30;57.44
13033;BME280;6583;42.632;23.298;2022-10-16T10:31:03;93329.09;;;14.38;58.41
13033;BME280;6583;42.632;23.298;2022-10-16T10:33:41;93326.81;;;14.45;57.15
13033;BME280;6583;42.632;23.298;2022-10-16T10:36:20;93327.59;;;14.46;59.98
13033;BME280;6583;42.632;23.298;2022-10-16T10:38:51;93324.94;;;14.46;57.06
13033;BME280;6583;42.632;23.298;2022-10-16T10:41:34;93319.66;;;14.60;54.50
13033;BME280;6583;42.632;23.298;2022-10-16T10:44:07;93308.25;;;14.54;52.97
13033;BME280;6583;42.632;23.298;2022-10-16T10:46:41;93315.69;;;14.57;56.39
13033;BME280;6583;42.632;23.298;2022-10-16T10:49:34;93303.09;;;14.58;55.13
13033;BME280;6583;42.632;23.298;2022-10-16T10:52:13;93306.78;;;14.62;57.23
13033;BME280;6583;42.632;23.298;2022-10-16T10:54:53;93302.13;;;14.54;55.41
13033;BME280;6583;42.632;23.298;2022-10-16T10:57:28;93302.63;;;14.56;55.43
13033;BME280;6583;42.632;23.298;2022-10-16T11:00:04;93300.88;;;14.65;54.99
13033;BME280;6583;42.632;23.298;2022-10-16T11:02:38;93304.63;;;14.64;54.83
13033;BME280;6583;42.632;23.298;2022-10-16T11:05:40;93295.72;;;14.69;57.24
13033;BME280;6583;42.632;23.298;2022-10-16T11:08:12;93285.31;;;14.67;57.33
13033;BME280;6583;42.632;23.298;2022-10-16T11:10:45;93293.16;;;14.63;56.02
13033;BME280;6583;42.632;23.298;2022-10-16T11:13:23;93288.09;;;14.62;55.01
13033;BME280;6583;42.632;23.298;2022-10-16T11:15:54;93286.63;;;14.70;53.81
13033;BME280;6583;42.632;23.298;2022-10-16T11:18:29;93289.00;;;14.71;55.26
13033;BME280;6583;42.632;23.298;2022-10-16T11:21:02;93290.56;;;14.72;56.09
13033;BME280;6583;42.632;23.298;2022-10-16T11:23:35;93287.72;;;14.69;54.88
13033;BME280;6583;42.632;23.298;2022-10-16T11:26:11;93289.78;;;14.72;54.03
13033;BME280;6583;42.632;23.298;2022-10-16T11:28:45;93287.31;;;14.75;53.85
13033;BME280;6583;42.632;23.298;2022-10-16T11:31:16;93281.09;;;14.80;49.78
13033;BME280;6583;42.632;23.298;2022-10-16T11:33:48;93276.53;;;14.80;50.23
13033;BME280;6583;42.632;23.298;2022-10-16T11:36:22;93282.28;;;14.88;48.31
13033;BME280;6583;42.632;23.298;2022-10-16T11:38:53;93278.72;;;14.92;47.81
13033;BME280;6583;42.632;23.298;2022-10-16T11:41:27;93281.41;;;14.92;47.21
13033;BME280;6583;42.632;23.298;2022-10-16T11:44:13;93276.53;;;14.94;45.77
13033;BME280;6583;42.632;23.298;2022-10-16T11:46:50;93281.38;;;15.06;47.40
13033;BME280;6583;42.632;23.298;2022-10-16T11:49:21;93281.28;;;15.11;48.02
13033;BME280;6583;42.632;23.298;2022-10-16T11:51:56;93283.56;;;15.04;45.93
13033;BME280;6583;42.632;23.298;2022-10-16T11:54:32;93284.56;;;15.08;46.04
13033;BME280;6583;42.632;23.298;2022-10-16T11:57:11;93284.56;;;15.08;44.73
13033;BME280;6583;42.632;23.298;2022-10-16T11:59:43;93282.75;;;15.03;44.09
13033;BME280;6583;42.632;23.298;2022-10-16T12:02:31;93280.31;;;15.07;49.42
13033;BME280;6583;42.632;23.298;2022-10-16T12:05:10;93279.31;;;15.03;46.21
13033;BME280;6583;42.632;23.298;2022-10-16T12:07:47;93281.09;;;15.08;48.00
13033;BME280;6583;42.632;23.298;2022-10-16T12:10:21;93272.19;;;15.12;48.30
13033;BME280;6583;42.632;23.298;2022-10-16T12:12:48;93271.47;;;15.20;45.54
13033;BME280;6583;42.632;23.298;2022-10-16T12:15:20;93279.88;;;15.28;46.30
13033;BME280;6583;42.632;23.298;2022-10-16T12:17:48;93281.66;;;15.32;44.47
13033;BME280;6583;42.632;23.298;2022-10-16T12:20:27;93288.59;;;15.33;46.63
13033;BME280;6583;42.632;23.298;2022-10-16T12:22:59;93285.63;;;15.35;48.67
13033;BME280;6583;42.632;23.298;2022-10-16T12:25:29;93287.78;;;15.33;47.54
13033;BME280;6583;42.632;23.298;2022-10-16T12:28:01;93287.28;;;15.31;45.34
13033;BME280;6583;42.632;23.298;2022-10-16T12:30:31;93283.16;;;15.25;45.25
13033;BME280;6583;42.632;23.298;2022-10-16T12:33:00;93286.50;;;15.30;46.03
13033;BME280;6583;42.632;23.298;2022-10-16T12:35:30;93282.06;;;15.26;45.62
13033;BME280;6583;42.632;23.298;2022-10-16T12:38:07;93287.78;;;15.33;48.51
13033;BME280;6583;42.632;23.298;2022-10-16T12:40:37;93293.13;;;15.33;47.83
13033;BME280;6583;42.632;23.298;2022-10-16T12:43:27;93285.03;;;15.24;46.63
13033;BME280;6583;42.632;23.298;2022-10-16T12:46:04;93289.59;;;15.23;44.19
13033;BME280;6583;42.632;23.298;2022-10-16T12:48:31;93284.72;;;15.26;46.71
13033;BME280;6583;42.632;23.298;2022-10-16T12:51:10;93282.53;;;15.28;44.19
13033;BME280;6583;42.632;23.298;2022-10-16T12:53:38;93294.72;;;15.34;46.19
13033;BME280;6583;42.632;23.298;2022-10-16T12:56:13;93290.53;;;15.41;45.75
13033;BME280;6583;42.632;23.298;2022-10-16T12:58:56;93291.16;;;15.38;48.32
13033;BME280;6583;42.632;23.298;2022-10-16T13:01:36;93297.19;;;15.44;51.65
13033;BME280;6583;42.632;23.298;2022-10-16T13:04:30;93299.97;;;15.39;49.75
13033;BME280;6583;42.632;23.298;2022-10-16T13:07:13;93304.53;;;15.38;48.70
13033;BME280;6583;42.632;23.298;2022-10-16T13:09:52;93302.94;;;15.37;49.99
13033;BME280;6583;42.632;23.298;2022-10-16T13:12:41;93296.25;;;15.26;48.24
13033;BME280;6583;42.632;23.298;2022-10-16T13:15:33;93301.25;;;15.28;46.55
13033;BME280;6583;42.632;23.298;2022-10-16T13:18:06;93303.25;;;15.36;47.69
13033;BME280;6583;42.632;23.298;2022-10-16T13:20:55;93304.53;;;15.38;47.87
13033;BME280;6583;42.632;23.298;2022-10-16T13:23:27;93302.47;;;15.35;46.39